createdAt,value
2023-01-19T00:02:51.234Z,96801.80
2023-01-19T00:05:57.665Z,96789.00
2023-01-19T00:09:04.085Z,96783.00
2023-01-19T00:12:11.460Z,96780.60
2023-01-19T00:15:17.821Z,96785.20
2023-01-19T00:18:24.845Z,96777.20
2023-01-19T00:21:31.103Z,96787.40
2023-01-19T00:24:37.543Z,96783.20
2023-01-19T00:27:50.198Z,96780.40
2023-01-19T00:30:56.569Z,96783.00
2023-01-19T00:34:03.305Z,96784.80
2023-01-19T00:37:10.813Z,96791.00
2023-01-19T00:40:18.107Z,96789.00
2023-01-19T00:43:24.582Z,96790.60
2023-01-19T00:46:30.780Z,96793.40
2023-01-19T00:49:37.032Z,96794.20
2023-01-19T00:52:44.694Z,96792.20
2023-01-19T00:55:51.417Z,96790.80
2023-01-19T00:58:57.664Z,96787.40
2023-01-19T01:02:04.577Z,96783.00
2023-01-19T01:05:13.874Z,96780.00
2023-01-19T01:08:19.975Z,96779.40
2023-01-19T01:11:26.615Z,96778.20
2023-01-19T01:14:33.070Z,96781.80
2023-01-19T01:17:47.842Z,96781.00
2023-01-19T01:20:56.247Z,96778.60
2023-01-19T01:24:02.966Z,96778.60
2023-01-19T01:27:09.454Z,96783.20
2023-01-19T01:30:17.847Z,96789.60
2023-01-19T01:33:39.978Z,96786.20
2023-01-19T01:36:48.179Z,96795.40
2023-01-19T01:39:54.383Z,96796.60
2023-01-19T01:43:01.993Z,96808.60
2023-01-19T01:46:08.979Z,96812.20
2023-01-19T01:49:18.829Z,96811.40
2023-01-19T01:52:27.909Z,96816.00
2023-01-19T01:55:36.952Z,96826.40
2023-01-19T01:58:43.376Z,96830.40
2023-01-19T02:02:07.825Z,96833.60
2023-01-19T02:05:17.827Z,96836.40
2023-01-19T02:08:47.116Z,96843.80
2023-01-19T02:12:16.245Z,96846.20
2023-01-19T02:15:23.333Z,96854.60
2023-01-19T02:18:32.131Z,96851.80
2023-01-19T02:21:46.023Z,96849.20
2023-01-19T02:24:52.938Z,96822.00
2023-01-19T02:28:03.903Z,96812.40
2023-01-19T02:31:10.739Z,96817.80
2023-01-19T02:34:19.913Z,96819.80
2023-01-19T02:37:27.879Z,96827.20
2023-01-19T02:40:34.796Z,96821.60
2023-01-19T02:43:42.920Z,96809.00
2023-01-19T02:46:49.391Z,96806.40
2023-01-19T02:49:59.728Z,96811.00
2023-01-19T02:53:14.897Z,96816.40
2023-01-19T02:56:43.170Z,96828.80
2023-01-19T03:00:01.220Z,96818.80
2023-01-19T03:03:24.566Z,96815.80
2023-01-19T03:06:44.182Z,96823.80
2023-01-19T03:09:56.795Z,96820.20
2023-01-19T03:13:11.789Z,96817.20
2023-01-19T03:16:22.900Z,96811.80
2023-01-19T03:19:34.216Z,96821.00
2023-01-19T03:22:40.736Z,96839.40
2023-01-19T03:25:50.835Z,96848.60
2023-01-19T03:29:00.890Z,96855.00
2023-01-19T03:32:12.757Z,96849.60
2023-01-19T03:35:21.948Z,96836.20
2023-01-19T03:38:30.337Z,96817.60
2023-01-19T03:41:37.840Z,96815.20
2023-01-19T03:44:47.080Z,96814.20
2023-01-19T03:47:53.541Z,96815.20
2023-01-19T03:50:59.991Z,96796.80
2023-01-19T03:57:27.378Z,96786.20
2023-01-19T04:00:34.793Z,96810.80
2023-01-19T04:03:41.534Z,96832.60
2023-01-19T04:06:47.908Z,96835.20
2023-01-19T04:09:54.192Z,96850.40
2023-01-19T04:13:04.636Z,96864.60
2023-01-19T04:16:12.596Z,96850.60
2023-01-19T04:19:18.772Z,96848.60
2023-01-19T04:22:25.211Z,96858.40
2023-01-19T04:25:31.504Z,96872.00
2023-01-19T04:28:39.928Z,96870.60
2023-01-19T04:31:46.452Z,96855.40
2023-01-19T04:34:54.474Z,96827.40
2023-01-19T04:38:00.919Z,96822.00
2023-01-19T04:41:07.852Z,96824.00
2023-01-19T04:44:14.659Z,96811.20
2023-01-19T04:47:21.808Z,96812.20
2023-01-19T04:50:28.343Z,96822.60
2023-01-19T04:53:35.182Z,96815.40
2023-01-19T04:56:42.002Z,96803.20
2023-01-19T04:59:48.729Z,96816.00
2023-01-19T05:02:54.997Z,96813.80
2023-01-19T05:06:01.351Z,96819.80
2023-01-19T05:09:09.178Z,96820.00
2023-01-19T05:12:15.442Z,96824.60
2023-01-19T05:15:21.960Z,96821.20
2023-01-19T05:18:28.573Z,96828.60
2023-01-19T05:21:35.008Z,96841.20
2023-01-19T05:24:41.396Z,96858.80
2023-01-19T05:27:47.770Z,96878.20
2023-01-19T05:30:54.880Z,96888.00
2023-01-19T05:34:01.195Z,96892.20
2023-01-19T05:37:08.174Z,96896.40
2023-01-19T05:40:15.600Z,96892.40
2023-01-19T05:43:22.356Z,96891.40
2023-01-19T05:46:28.888Z,96881.40
2023-01-19T05:49:36.262Z,96873.20
2023-01-19T05:52:42.459Z,96872.80
2023-01-19T05:55:48.798Z,96873.80
2023-01-19T05:58:55.258Z,96871.80
2023-01-19T06:02:01.656Z,96874.40
2023-01-19T06:05:09.146Z,96848.00
2023-01-19T06:08:15.641Z,96852.20
2023-01-19T06:11:22.285Z,96846.80
2023-01-19T06:14:28.887Z,96861.20
2023-01-19T06:17:36.437Z,96859.00
2023-01-19T06:20:43.031Z,96858.40
2023-01-19T06:23:49.391Z,96850.00
2023-01-19T06:26:56.167Z,96850.40
2023-01-19T06:30:02.518Z,96838.40
2023-01-19T06:33:09.311Z,96819.00
2023-01-19T06:36:15.574Z,96809.60
2023-01-19T06:39:21.886Z,96814.00
2023-01-19T06:42:28.525Z,96832.40
2023-01-19T06:45:35.026Z,96861.00
2023-01-19T06:48:41.382Z,96875.00
2023-01-19T06:51:47.890Z,96881.20
2023-01-19T06:54:53.929Z,96883.00
2023-01-19T06:58:02.954Z,96870.00
2023-01-19T07:01:10.057Z,96843.60
2023-01-19T07:04:16.686Z,96831.60
2023-01-19T07:07:22.907Z,96831.80
2023-01-19T07:11:23.583Z,96824.80
2023-01-19T07:13:57.099Z,96825.80
2023-01-19T07:17:03.391Z,96814.40
2023-01-19T07:20:14.406Z,96827.40
2023-01-19T07:23:21.273Z,96822.00
2023-01-19T07:26:28.291Z,96833.60
2023-01-19T07:29:34.809Z,96860.80
2023-01-19T07:32:42.738Z,96854.80
2023-01-19T07:35:51.290Z,96869.20
2023-01-19T07:38:57.791Z,96870.00
2023-01-19T07:42:04.377Z,96862.20
2023-01-19T07:45:12.292Z,96872.00
2023-01-19T07:48:18.615Z,96876.80
2023-01-19T07:51:25.441Z,96877.00
2023-01-19T07:54:33.971Z,96880.00
2023-01-19T07:57:40.867Z,96894.20
2023-01-19T08:00:50.947Z,96901.20
2023-01-19T08:03:57.533Z,96900.00
2023-01-19T08:07:04.438Z,96900.00
2023-01-19T08:10:12.514Z,96901.40
2023-01-19T08:13:19.151Z,96905.20
2023-01-19T08:16:25.467Z,96905.80
2023-01-19T08:19:32.370Z,96902.20
2023-01-19T08:22:38.968Z,96897.20
2023-01-19T08:25:46.347Z,96894.00
2023-01-19T08:28:52.520Z,96891.40
2023-01-19T08:32:00.416Z,96904.40
2023-01-19T08:35:08.211Z,96893.40
2023-01-19T08:38:14.681Z,96884.40
2023-01-19T08:41:21.156Z,96882.00
2023-01-19T08:44:28.129Z,96882.80
2023-01-19T08:47:34.244Z,96884.80
2023-01-19T08:50:40.963Z,96895.20
2023-01-19T08:53:47.225Z,96903.40
2023-01-19T08:56:53.723Z,96909.20
2023-01-19T08:59:59.890Z,96912.60
2023-01-19T09:03:07.934Z,96898.20
2023-01-19T09:06:19.480Z,96899.60
2023-01-19T09:09:26.047Z,96901.00
2023-01-19T09:12:32.315Z,96904.60
2023-01-19T09:15:38.827Z,96904.40
2023-01-19T09:18:46.287Z,96909.60
2023-01-19T09:21:54.702Z,96924.60
2023-01-19T09:25:01.581Z,96926.60
2023-01-19T09:28:09.491Z,96925.20
2023-01-19T09:31:16.447Z,96926.60
2023-01-19T09:34:23.903Z,96923.60
2023-01-19T09:37:30.128Z,96913.80
2023-01-19T09:40:37.028Z,96909.40
2023-01-19T09:43:47.920Z,96903.20
2023-01-19T09:46:54.378Z,96915.40
2023-01-19T09:50:06.816Z,96923.40
2023-01-19T09:53:19.214Z,96922.20
2023-01-19T09:56:26.153Z,96911.40
2023-01-19T09:59:34.369Z,96903.80
2023-01-19T10:02:45.674Z,96900.40
2023-01-19T10:05:56.272Z,96904.40
2023-01-19T10:09:13.539Z,96898.80
2023-01-19T10:12:28.837Z,96892.40
2023-01-19T10:15:46.341Z,96887.80
2023-01-19T10:18:54.973Z,96894.20
2023-01-19T10:22:06.593Z,96902.20
2023-01-19T10:25:20.082Z,96902.80
2023-01-19T10:28:27.962Z,96903.80
2023-01-19T10:31:39.057Z,96902.20
2023-01-19T10:34:45.363Z,96898.60
2023-01-19T10:37:52.343Z,96895.20
2023-01-19T10:41:05.229Z,96895.40
2023-01-19T10:44:13.615Z,96893.60
2023-01-19T10:47:25.523Z,96894.00
2023-01-19T10:50:33.804Z,96902.80
2023-01-19T10:53:40.469Z,96905.40
2023-01-19T10:56:55.398Z,96903.40
2023-01-19T11:00:01.950Z,96909.20
2023-01-19T11:03:25.787Z,96913.20
2023-01-19T11:06:34.104Z,96920.40
2023-01-19T11:09:40.674Z,96925.60
2023-01-19T11:12:54.021Z,96931.60
2023-01-19T11:16:06.093Z,96932.40
2023-01-19T11:19:25.705Z,96932.80
2023-01-19T11:22:34.332Z,96933.00
2023-01-19T11:25:41.347Z,96932.40
2023-01-19T11:28:52.071Z,96928.20
2023-01-19T11:32:10.277Z,96927.80
2023-01-19T11:35:40.474Z,96917.40
2023-01-19T11:38:50.624Z,96923.80
2023-01-19T11:42:01.735Z,96923.40
2023-01-19T11:45:14.197Z,96929.00
2023-01-19T11:48:28.653Z,96938.20
2023-01-19T11:51:41.233Z,96939.80
2023-01-19T11:54:55.921Z,96946.40
2023-01-19T11:58:04.195Z,96945.40
2023-01-19T12:01:18.303Z,96938.60
2023-01-19T12:04:29.510Z,96940.80
2023-01-19T12:07:37.651Z,96946.60
2023-01-19T12:10:48.637Z,96951.60
2023-01-19T12:13:56.057Z,96957.40
2023-01-19T12:17:04.833Z,96965.80
2023-01-19T12:20:23.181Z,96976.60
2023-01-19T12:23:42.392Z,96975.40
2023-01-19T12:26:54.413Z,96985.20
2023-01-19T12:33:38.652Z,96984.00
2023-01-19T12:36:45.403Z,96982.20
2023-01-19T12:39:52.315Z,96988.40
2023-01-19T12:43:17.890Z,96995.20
2023-01-19T12:46:32.855Z,97004.20
2023-01-19T12:49:46.764Z,97006.80
2023-01-19T12:52:57.571Z,97011.40
2023-01-19T12:56:16.297Z,97018.00
2023-01-19T12:59:28.694Z,97019.20
2023-01-19T13:02:45.348Z,97019.40
2023-01-19T13:05:55.293Z,97016.80
2023-01-19T13:09:04.752Z,97030.40
2023-01-19T13:12:19.774Z,97031.80
2023-01-19T13:15:37.747Z,97027.40
2023-01-19T13:18:48.591Z,97036.00
2023-01-19T13:21:56.536Z,97042.80
2023-01-19T13:25:24.246Z,97051.00
2023-01-19T13:28:34.790Z,97059.60
2023-01-19T13:31:44.958Z,97066.20
2023-01-19T13:34:57.641Z,97075.80
2023-01-19T13:38:04.823Z,97083.00
2023-01-19T13:41:11.330Z,97091.00
2023-01-19T13:44:19.697Z,97103.40
2023-01-19T13:47:31.036Z,97104.20
2023-01-19T13:50:38.782Z,97113.40
2023-01-19T13:53:56.854Z,97113.20
2023-01-19T13:57:02.988Z,97116.00
2023-01-19T14:00:20.079Z,97121.60
2023-01-19T14:03:27.291Z,97125.80
2023-01-19T14:06:40.024Z,97130.40
2023-01-19T14:09:46.431Z,97132.80
2023-01-19T14:13:03.476Z,97134.80
2023-01-19T14:16:17.071Z,97138.80
2023-01-19T14:19:24.083Z,97141.00
2023-01-19T14:22:46.523Z,97144.40
2023-01-19T14:25:52.984Z,97145.20
2023-01-19T14:28:59.663Z,97143.40
2023-01-19T14:32:28.681Z,97140.20
2023-01-19T14:35:36.070Z,97132.20
2023-01-19T14:38:46.530Z,97145.00
2023-01-19T14:41:55.610Z,97143.00
2023-01-19T14:45:04.168Z,97155.00
2023-01-19T14:48:19.050Z,97159.60
2023-01-19T14:51:28.357Z,97149.80
2023-01-19T14:54:39.877Z,97163.80
2023-01-19T14:57:46.058Z,97162.80
2023-01-19T15:00:55.774Z,97159.20
2023-01-19T15:04:02.588Z,97165.40
2023-01-19T15:07:13.173Z,97174.40
2023-01-19T15:10:22.837Z,97193.60
2023-01-19T15:13:29.932Z,97198.00
2023-01-19T15:16:37.305Z,97192.20
2023-01-19T15:19:43.401Z,97200.00
2023-01-19T15:22:50.235Z,97192.00
2023-01-19T15:26:02.449Z,97181.00
2023-01-19T15:29:21.818Z,97186.00
2023-01-19T15:32:28.323Z,97194.00
2023-01-19T15:35:35.139Z,97206.60
2023-01-19T15:38:41.567Z,97219.60
2023-01-19T15:41:48.179Z,97230.00
2023-01-19T15:44:55.986Z,97233.60
2023-01-19T15:48:03.985Z,97243.80
2023-01-19T15:51:14.806Z,97241.40
2023-01-19T15:54:21.688Z,97233.00
2023-01-19T15:57:28.665Z,97248.60
2023-01-19T16:00:36.842Z,97241.60
2023-01-19T16:03:43.698Z,97254.00
2023-01-19T16:06:50.964Z,97254.40
2023-01-19T16:09:57.855Z,97265.00
2023-01-19T16:13:04.905Z,97271.20
2023-01-19T16:16:28.431Z,97277.60
2023-01-19T16:19:35.325Z,97283.00
2023-01-19T16:22:41.749Z,97303.40
2023-01-19T16:25:58.774Z,97310.20
2023-01-19T16:29:09.945Z,97310.20
2023-01-19T16:32:17.085Z,97308.60
2023-01-19T16:35:23.533Z,97323.20
2023-01-19T16:38:32.803Z,97329.20
2023-01-19T16:41:40.322Z,97345.40
2023-01-19T16:44:46.790Z,97350.60
2023-01-19T16:47:53.194Z,97364.00
2023-01-19T16:51:08.036Z,97376.00
2023-01-19T16:54:16.281Z,97375.20
2023-01-19T16:57:22.688Z,97374.60
2023-01-19T17:00:29.204Z,97371.80
2023-01-19T17:03:35.975Z,97377.00
2023-01-19T17:06:42.825Z,97375.20
2023-01-19T17:09:49.611Z,97383.60
2023-01-19T17:12:55.919Z,97389.80
2023-01-19T17:16:06.625Z,97395.80
2023-01-19T17:19:17.797Z,97409.20
2023-01-19T17:22:23.942Z,97411.00
2023-01-19T17:25:30.573Z,97416.40
2023-01-19T17:28:37.037Z,97423.20
2023-01-19T17:31:45.242Z,97423.80
2023-01-19T17:34:55.740Z,97425.80
2023-01-19T17:38:02.202Z,97422.00
2023-01-19T17:41:15.647Z,97413.60
2023-01-19T17:44:22.257Z,97414.60
2023-01-19T17:47:28.894Z,97408.20
2023-01-19T17:50:36.847Z,97410.40
2023-01-19T17:53:44.119Z,97414.60
2023-01-19T17:56:51.059Z,97422.20
2023-01-19T17:59:57.491Z,97428.80
2023-01-19T18:03:05.874Z,97430.80
2023-01-19T18:06:13.987Z,97433.40
2023-01-19T18:09:20.886Z,97425.80
2023-01-19T18:12:27.489Z,97426.40
2023-01-19T18:15:34.256Z,97429.60
2023-01-19T18:18:41.311Z,97444.40
2023-01-19T18:21:48.478Z,97437.00
2023-01-19T18:24:54.751Z,97442.40
2023-01-19T18:28:00.837Z,97453.80
2023-01-19T18:31:10.268Z,97458.00
2023-01-19T18:34:16.750Z,97469.20
2023-01-19T18:37:23.940Z,97473.40
2023-01-19T18:40:30.619Z,97476.80
2023-01-19T18:43:37.689Z,97478.60
2023-01-19T18:46:44.487Z,97479.20
2023-01-19T18:49:50.937Z,97479.80
2023-01-19T18:52:57.497Z,97475.80
2023-01-19T18:56:04.801Z,97475.40
2023-01-19T18:59:11.994Z,97479.80
2023-01-19T19:02:18.426Z,97481.60
2023-01-19T19:05:25.157Z,97484.20
2023-01-19T19:08:31.243Z,97484.80
2023-01-19T19:11:37.967Z,97487.80
2023-01-19T19:14:47.410Z,97492.20
2023-01-19T19:17:54.043Z,97499.60
2023-01-19T19:21:00.370Z,97496.60
2023-01-19T19:24:08.114Z,97498.80
2023-01-19T19:27:14.539Z,97510.00
2023-01-19T19:30:23.444Z,97517.60
2023-01-19T19:33:31.262Z,97526.00
2023-01-19T19:36:39.281Z,97533.60
2023-01-19T19:39:45.974Z,97546.00
2023-01-19T19:42:52.954Z,97551.40
2023-01-19T19:46:04.511Z,97549.80
2023-01-19T19:49:11.594Z,97558.40
2023-01-19T19:52:18.325Z,97555.60
2023-01-19T19:55:24.584Z,97560.80
2023-01-19T19:58:31.929Z,97551.20
2023-01-19T20:01:40.058Z,97557.20
2023-01-19T20:04:47.032Z,97557.80
2023-01-19T20:07:53.953Z,97555.20
2023-01-19T20:11:08.168Z,97556.40
2023-01-19T20:17:26.342Z,97555.00
2023-01-19T20:20:36.107Z,97552.80
2023-01-19T20:23:43.469Z,97548.20
2023-01-19T20:26:52.583Z,97548.60
2023-01-19T20:29:59.202Z,97553.20
2023-01-19T20:33:05.960Z,97552.20
2023-01-19T20:36:13.864Z,97560.80
2023-01-19T20:39:22.495Z,97559.80
2023-01-19T20:42:28.907Z,97559.80
2023-01-19T20:45:35.885Z,97557.20
2023-01-19T20:48:42.538Z,97552.00
2023-01-19T20:51:50.276Z,97552.40
2023-01-19T20:54:57.107Z,97553.20
2023-01-19T20:58:03.597Z,97551.20
2023-01-19T21:01:17.994Z,97542.20
2023-01-19T21:04:26.041Z,97535.40
2023-01-19T21:07:32.341Z,97536.00
2023-01-19T21:10:39.491Z,97543.00
2023-01-19T21:13:46.082Z,97541.60
2023-01-19T21:16:56.842Z,97548.20
2023-01-19T21:20:03.153Z,97554.00
2023-01-19T21:23:10.096Z,97571.60
2023-01-19T21:26:17.186Z,97569.80
2023-01-19T21:29:23.645Z,97578.60
2023-01-19T21:32:30.011Z,97573.00
2023-01-19T21:35:36.618Z,97579.40
2023-01-19T21:38:42.875Z,97577.00
2023-01-19T21:41:49.737Z,97574.60
2023-01-19T21:44:56.213Z,97582.20
2023-01-19T21:48:02.924Z,97584.40
2023-01-19T21:51:10.413Z,97586.20
2023-01-19T21:54:17.020Z,97592.40
2023-01-19T21:57:23.318Z,97603.00
2023-01-19T22:00:31.146Z,97609.20
2023-01-19T22:03:37.434Z,97613.60
2023-01-19T22:06:44.023Z,97609.40
2023-01-19T22:09:50.329Z,97621.00
2023-01-19T22:12:57.350Z,97639.00
2023-01-19T22:16:04.680Z,97651.60
2023-01-19T22:19:14.700Z,97664.00
2023-01-19T22:22:21.717Z,97660.80
2023-01-19T22:25:28.845Z,97654.80
2023-01-19T22:28:36.069Z,97646.80
2023-01-19T22:31:43.352Z,97651.00
2023-01-19T22:34:50.299Z,97648.80
2023-01-19T22:37:56.491Z,97634.40
2023-01-19T22:41:03.046Z,97641.00
2023-01-19T22:44:12.808Z,97656.20
2023-01-19T22:47:19.243Z,97666.00
2023-01-19T22:50:25.631Z,97667.40
2023-01-19T22:53:34.708Z,97661.60
2023-01-19T22:56:42.274Z,97650.60
2023-01-19T22:59:48.940Z,97634.40
2023-01-19T23:02:55.456Z,97628.20
2023-01-19T23:06:06.130Z,97625.80
2023-01-19T23:09:14.823Z,97618.20
2023-01-19T23:12:21.382Z,97621.00
2023-01-19T23:15:27.989Z,97616.00
2023-01-19T23:18:36.254Z,97621.00
2023-01-19T23:21:43.585Z,97622.20
2023-01-19T23:24:50.532Z,97618.40
2023-01-19T23:27:56.917Z,97615.00
2023-01-19T23:31:13.663Z,97606.60
2023-01-19T23:34:20.199Z,97597.40
2023-01-19T23:37:26.525Z,97591.00
2023-01-19T23:40:33.213Z,97588.20
2023-01-19T23:43:41.083Z,97585.20
2023-01-19T23:46:47.531Z,97587.60
2023-01-19T23:49:53.691Z,97595.80
2023-01-19T23:53:00.702Z,97603.20
2023-01-19T23:56:17.503Z,97611.80
2023-01-19T23:59:26.895Z,97622.80
